createdAt,value
2024-01-24T00:02:05.303Z,5.88
2024-01-24T00:04:32.049Z,6.15
2024-01-24T00:06:58.750Z,6.72
2024-01-24T00:09:25.646Z,7.22
2024-01-24T00:11:52.472Z,7.38
2024-01-24T00:14:19.213Z,7.13
2024-01-24T00:16:45.913Z,7.22
2024-01-24T00:19:12.658Z,6.93
2024-01-24T00:21:40.219Z,8.20
2024-01-24T00:24:07.099Z,7.32
2024-01-24T00:26:34.360Z,7.00
2024-01-24T00:29:01.090Z,8.05
2024-01-24T00:31:27.912Z,7.28
2024-01-24T00:33:54.731Z,6.75
2024-01-24T00:36:21.553Z,6.80
2024-01-24T00:38:48.327Z,7.25
2024-01-24T00:41:15.134Z,6.63
2024-01-24T00:43:43.148Z,8.88
2024-01-24T00:46:10.368Z,8.15
2024-01-24T00:48:37.253Z,7.80
2024-01-24T00:51:04.612Z,8.30
2024-01-24T00:53:34.860Z,7.75
2024-01-24T00:56:01.697Z,7.20
2024-01-24T00:58:28.410Z,9.00
2024-01-24T01:00:55.283Z,7.55
2024-01-24T01:03:22.343Z,7.30
2024-01-24T01:05:49.054Z,6.82
2024-01-24T01:08:15.956Z,7.43
2024-01-24T01:10:43.340Z,7.95
2024-01-24T01:13:10.024Z,8.52
2024-01-24T01:15:36.762Z,7.32
2024-01-24T01:18:03.727Z,6.78
2024-01-24T01:20:30.814Z,8.40
2024-01-24T01:22:57.492Z,7.70
2024-01-24T01:25:24.178Z,7.07
2024-01-24T01:27:50.961Z,8.18
2024-01-24T01:30:17.869Z,6.43
2024-01-24T01:32:44.684Z,7.45
2024-01-24T01:35:11.504Z,7.68
2024-01-24T01:37:39.372Z,6.82
2024-01-24T01:40:07.944Z,6.90
2024-01-24T01:42:34.702Z,7.40
2024-01-24T01:45:01.493Z,7.47
2024-01-24T01:47:28.627Z,6.68
2024-01-24T01:49:55.626Z,6.63
2024-01-24T01:52:24.011Z,6.03
2024-01-24T01:54:52.324Z,6.55
2024-01-24T01:57:19.232Z,5.93
2024-01-24T01:59:46.545Z,6.30
2024-01-24T02:02:14.476Z,6.53
2024-01-24T02:04:41.237Z,6.70
2024-01-24T02:07:08.219Z,7.85
2024-01-24T02:09:35.677Z,6.75
2024-01-24T02:12:02.436Z,5.60
2024-01-24T02:14:29.635Z,7.22
2024-01-24T02:16:56.346Z,7.50
2024-01-24T02:19:23.429Z,6.40
2024-01-24T02:21:50.217Z,8.07
2024-01-24T02:24:17.129Z,6.60
2024-01-24T02:26:44.212Z,6.45
2024-01-24T02:29:12.905Z,5.65
2024-01-24T02:31:39.683Z,6.80
2024-01-24T02:34:06.534Z,5.72
2024-01-24T02:36:33.357Z,5.82
2024-01-24T02:39:00.060Z,6.00
2024-01-24T02:41:26.736Z,5.68
2024-01-24T02:43:53.494Z,7.40
2024-01-24T02:46:20.185Z,6.75
2024-01-24T02:48:47.035Z,6.85
2024-01-24T02:51:23.572Z,6.55
2024-01-24T02:53:50.258Z,5.97
2024-01-24T02:56:17.021Z,7.43
2024-01-24T02:58:43.731Z,6.30
2024-01-24T03:01:12.488Z,7.25
2024-01-24T03:03:40.872Z,6.00
2024-01-24T03:06:08.034Z,6.40
2024-01-24T03:08:56.218Z,6.93
2024-01-24T03:11:23.102Z,6.80
2024-01-24T03:13:49.843Z,6.07
2024-01-24T03:16:17.955Z,6.57
2024-01-24T03:18:45.047Z,6.68
2024-01-24T03:21:16.877Z,5.93
2024-01-24T03:23:43.676Z,5.70
2024-01-24T03:26:10.578Z,7.18
2024-01-24T03:28:37.346Z,6.32
2024-01-24T03:31:04.107Z,5.72
2024-01-24T03:33:31.090Z,4.68
2024-01-24T03:35:58.030Z,6.53
2024-01-24T03:38:24.736Z,5.10
2024-01-24T03:40:51.480Z,5.90
2024-01-24T03:43:18.205Z,5.90
2024-01-24T03:45:45.103Z,5.25
2024-01-24T03:48:12.120Z,5.57
2024-01-24T03:50:39.457Z,6.55
2024-01-24T03:53:06.448Z,5.50
2024-01-24T03:55:33.173Z,5.82
2024-01-24T03:58:00.047Z,6.20
2024-01-24T04:00:28.960Z,5.88
2024-01-24T04:02:55.757Z,6.60
2024-01-24T04:05:22.711Z,5.60
2024-01-24T04:07:49.398Z,5.03
2024-01-24T04:10:17.337Z,6.22
2024-01-24T04:12:44.217Z,6.03
2024-01-24T04:15:11.075Z,6.68
2024-01-24T04:17:37.930Z,7.15
2024-01-24T04:20:05.364Z,7.25
2024-01-24T04:22:32.041Z,5.95
2024-01-24T04:24:58.814Z,6.00
2024-01-24T04:27:25.602Z,5.00
2024-01-24T04:29:52.296Z,5.78
2024-01-24T04:32:19.215Z,5.85
2024-01-24T04:34:46.274Z,5.07
2024-01-24T04:37:13.125Z,6.57
2024-01-24T04:39:39.924Z,4.60
2024-01-24T04:42:12.307Z,4.93
2024-01-24T04:44:43.543Z,5.85
2024-01-24T04:47:10.596Z,6.78
2024-01-24T04:49:44.631Z,5.32
2024-01-24T04:52:13.163Z,6.38
2024-01-24T04:54:39.924Z,5.80
2024-01-24T04:57:06.709Z,6.35
2024-01-24T04:59:42.509Z,5.53
2024-01-24T05:02:16.162Z,5.57
2024-01-24T05:04:42.959Z,6.28
2024-01-24T05:07:11.088Z,6.22
2024-01-24T05:09:37.868Z,5.15
2024-01-24T05:12:04.997Z,5.07
2024-01-24T05:14:31.734Z,5.35
2024-01-24T05:16:58.451Z,4.97
2024-01-24T05:19:25.407Z,5.47
2024-01-24T05:21:52.215Z,5.40
2024-01-24T05:24:18.945Z,6.32
2024-01-24T05:26:47.680Z,4.75
2024-01-24T05:29:14.578Z,6.03
2024-01-24T05:31:41.345Z,6.60
2024-01-24T05:34:09.457Z,5.50
2024-01-24T05:36:37.376Z,5.28
2024-01-24T05:39:08.636Z,4.88
2024-01-24T05:41:37.025Z,5.28
2024-01-24T05:44:04.334Z,6.03
2024-01-24T05:46:31.487Z,5.32
2024-01-24T05:48:59.771Z,5.45
2024-01-24T05:51:26.779Z,5.93
2024-01-24T05:53:53.506Z,5.38
2024-01-24T05:56:20.812Z,6.63
2024-01-24T05:58:48.146Z,4.88
2024-01-24T06:01:14.975Z,6.80
2024-01-24T06:03:42.871Z,5.85
2024-01-24T06:06:10.038Z,5.47
2024-01-24T06:08:38.209Z,5.38
2024-01-24T06:11:05.857Z,6.57
2024-01-24T06:13:32.849Z,6.55
2024-01-24T06:15:59.755Z,6.25
2024-01-24T06:18:26.584Z,4.82
2024-01-24T06:20:53.436Z,5.82
2024-01-24T06:23:20.109Z,5.40
2024-01-24T06:25:46.853Z,5.50
2024-01-24T06:28:14.368Z,6.13
2024-01-24T06:30:41.354Z,5.07
2024-01-24T06:33:08.656Z,4.85
2024-01-24T06:35:35.469Z,6.35
2024-01-24T06:38:02.706Z,4.65
2024-01-24T06:40:29.536Z,5.22
2024-01-24T06:42:56.337Z,4.93
2024-01-24T06:45:23.144Z,5.82
2024-01-24T06:47:51.477Z,4.68
2024-01-24T06:50:19.266Z,5.50
2024-01-24T06:52:46.847Z,5.28
2024-01-24T06:55:14.915Z,5.68
2024-01-24T06:57:41.966Z,5.53
2024-01-24T07:00:09.942Z,5.57
2024-01-24T07:02:37.801Z,5.95
2024-01-24T07:05:05.250Z,5.22
2024-01-24T07:07:32.458Z,4.55
2024-01-24T07:09:59.327Z,5.43
2024-01-24T07:12:26.151Z,5.22
2024-01-24T07:14:53.652Z,1.38
2024-01-24T07:17:21.409Z,6.13
2024-01-24T07:19:48.913Z,5.10
2024-01-24T07:22:17.760Z,5.70
2024-01-24T07:24:48.386Z,6.72
2024-01-24T07:27:15.311Z,5.00
2024-01-24T07:29:42.333Z,6.00
2024-01-24T07:32:09.053Z,6.43
2024-01-24T07:34:37.324Z,6.15
2024-01-24T07:37:04.928Z,5.10
2024-01-24T07:39:32.177Z,5.32
2024-01-24T07:41:59.025Z,6.03
2024-01-24T07:44:25.863Z,5.30
2024-01-24T07:46:52.954Z,5.22
2024-01-24T07:49:20.119Z,5.43
2024-01-24T07:51:50.378Z,4.72
2024-01-24T07:54:21.344Z,5.68
2024-01-24T07:56:48.887Z,5.13
2024-01-24T07:59:17.843Z,4.75
2024-01-24T08:01:51.017Z,4.60
2024-01-24T08:04:19.050Z,2.00
2024-01-24T08:06:49.009Z,4.70
2024-01-24T08:09:19.216Z,5.80
2024-01-24T08:11:46.180Z,5.68
2024-01-24T08:14:13.755Z,4.93
2024-01-24T08:16:40.567Z,4.50
2024-01-24T08:19:07.487Z,5.05
2024-01-24T08:21:34.957Z,6.30
2024-01-24T08:24:01.649Z,5.25
2024-01-24T08:26:28.407Z,5.82
2024-01-24T08:28:55.338Z,5.15
2024-01-24T08:31:22.084Z,4.85
2024-01-24T08:33:51.521Z,4.88
2024-01-24T08:36:20.470Z,6.55
2024-01-24T08:38:47.449Z,4.35
2024-01-24T08:41:14.491Z,5.22
2024-01-24T08:43:41.239Z,5.28
2024-01-24T08:46:07.981Z,6.50
2024-01-24T08:48:34.786Z,4.55
2024-01-24T08:51:01.701Z,6.20
2024-01-24T08:53:28.437Z,4.82
2024-01-24T08:55:56.165Z,5.95
2024-01-24T08:58:23.133Z,5.75
2024-01-24T09:00:51.799Z,4.95
2024-01-24T09:03:20.244Z,6.15
2024-01-24T09:05:47.749Z,4.70
2024-01-24T09:08:14.612Z,6.68
2024-01-24T09:10:41.486Z,4.78
2024-01-24T09:13:08.341Z,5.50
2024-01-24T09:15:35.814Z,8.30
2024-01-24T09:18:02.844Z,4.85
2024-01-24T09:20:29.893Z,6.03
2024-01-24T09:22:56.861Z,4.65
2024-01-24T09:25:23.851Z,5.50
2024-01-24T09:27:50.806Z,5.78
2024-01-24T09:30:18.080Z,5.45
2024-01-24T09:32:45.042Z,6.47
2024-01-24T09:35:12.205Z,5.13
2024-01-24T09:37:39.201Z,5.15
2024-01-24T09:40:07.954Z,6.82
2024-01-24T09:42:44.712Z,6.35
2024-01-24T09:45:12.150Z,5.70
2024-01-24T09:47:39.025Z,6.10
2024-01-24T09:50:07.350Z,5.80
2024-01-24T09:52:34.996Z,4.95
2024-01-24T09:55:06.126Z,5.85
2024-01-24T09:57:34.765Z,5.38
2024-01-24T10:00:02.350Z,5.13
2024-01-24T10:02:29.383Z,5.97
2024-01-24T10:04:58.843Z,4.18
2024-01-24T10:07:28.005Z,5.32
2024-01-24T10:10:10.264Z,5.47
2024-01-24T10:12:37.768Z,6.75
2024-01-24T10:15:05.008Z,5.30
2024-01-24T10:17:32.220Z,5.65
2024-01-24T10:20:02.550Z,5.65
2024-01-24T10:22:29.429Z,5.22
2024-01-24T10:24:56.460Z,4.90
2024-01-24T10:27:24.366Z,5.40
2024-01-24T10:29:54.013Z,5.18
2024-01-24T10:32:21.862Z,5.53
2024-01-24T10:34:51.379Z,5.28
2024-01-24T10:37:19.981Z,5.35
2024-01-24T10:39:49.345Z,4.70
2024-01-24T10:42:19.331Z,5.60
2024-01-24T10:44:51.183Z,4.68
2024-01-24T10:47:18.970Z,5.10
2024-01-24T10:49:48.149Z,5.70
2024-01-24T10:52:16.550Z,4.90
2024-01-24T10:54:46.185Z,6.10
2024-01-24T10:57:16.144Z,5.68
2024-01-24T10:59:45.387Z,4.78
2024-01-24T11:02:12.344Z,6.85
2024-01-24T11:04:40.488Z,5.13
2024-01-24T11:07:13.087Z,5.78
2024-01-24T11:09:57.692Z,4.95
2024-01-24T11:12:24.600Z,4.45
2024-01-24T11:14:52.652Z,5.00
2024-01-24T11:17:21.278Z,4.78
2024-01-24T11:19:48.196Z,5.60
2024-01-24T11:22:29.847Z,5.78
2024-01-24T11:24:59.931Z,4.90
2024-01-24T11:27:26.789Z,5.13
2024-01-24T11:29:55.506Z,4.65
2024-01-24T11:32:56.460Z,5.40
2024-01-24T11:35:26.256Z,5.68
2024-01-24T11:38:08.279Z,5.30
2024-01-24T11:40:44.731Z,6.18
2024-01-24T11:43:27.866Z,5.97
2024-01-24T11:45:56.125Z,5.15
2024-01-24T11:48:28.255Z,5.05
2024-01-24T11:51:00.424Z,5.55
2024-01-24T11:53:28.215Z,5.00
2024-01-24T11:55:59.542Z,4.18
2024-01-24T11:58:27.942Z,6.07
2024-01-24T12:00:56.054Z,5.43
2024-01-24T12:03:23.724Z,6.55
2024-01-24T12:05:51.237Z,5.35
2024-01-24T12:08:18.414Z,5.40
2024-01-24T12:10:45.521Z,5.60
2024-01-24T12:13:13.917Z,4.75
2024-01-24T12:15:43.303Z,4.90
2024-01-24T12:18:11.968Z,4.85
2024-01-24T12:20:39.879Z,5.07
2024-01-24T12:23:07.786Z,5.88
2024-01-24T12:25:34.546Z,6.57
2024-01-24T12:28:02.737Z,5.53
2024-01-24T12:30:36.152Z,6.82
2024-01-24T12:33:04.718Z,4.75
2024-01-24T12:35:32.998Z,5.18
2024-01-24T12:38:03.791Z,5.45
2024-01-24T12:40:33.162Z,5.00
2024-01-24T12:43:01.108Z,4.80
2024-01-24T12:45:28.668Z,4.88
2024-01-24T12:47:56.426Z,5.40
2024-01-24T12:50:23.976Z,6.68
2024-01-24T12:52:50.900Z,6.20
2024-01-24T12:55:18.049Z,4.60
2024-01-24T12:57:45.952Z,5.32
2024-01-24T13:00:13.696Z,4.93
2024-01-24T13:02:41.223Z,5.18
2024-01-24T13:05:09.034Z,6.00
2024-01-24T13:07:38.132Z,5.18
2024-01-24T13:10:07.536Z,5.72
2024-01-24T13:12:35.158Z,4.53
2024-01-24T13:15:04.696Z,6.10
2024-01-24T13:17:31.496Z,5.78
2024-01-24T13:19:58.275Z,4.78
2024-01-24T13:22:24.992Z,4.72
2024-01-24T13:24:55.130Z,6.35
2024-01-24T13:27:22.618Z,5.60
2024-01-24T13:29:49.524Z,5.03
2024-01-24T13:32:16.599Z,4.90
2024-01-24T13:34:43.543Z,5.13
2024-01-24T13:37:10.616Z,5.32
2024-01-24T13:39:38.177Z,5.35
2024-01-24T13:42:07.200Z,5.25
2024-01-24T13:44:34.304Z,5.72
2024-01-24T13:47:01.090Z,5.47
2024-01-24T13:49:27.858Z,5.70
2024-01-24T13:51:54.782Z,5.95
2024-01-24T13:54:22.229Z,4.82
2024-01-24T13:56:50.244Z,5.15
2024-01-24T13:59:17.062Z,5.13
2024-01-24T14:01:46.321Z,4.25
2024-01-24T14:04:25.098Z,6.03
2024-01-24T14:06:52.372Z,5.78
2024-01-24T14:09:19.660Z,6.15
2024-01-24T14:11:48.657Z,4.63
2024-01-24T14:14:16.151Z,5.78
2024-01-24T14:16:43.299Z,5.95
2024-01-24T14:19:10.230Z,5.10
2024-01-24T14:21:37.225Z,5.20
2024-01-24T14:24:04.361Z,5.30
2024-01-24T14:26:31.588Z,5.60
2024-01-24T14:28:59.898Z,6.47
2024-01-24T14:31:26.790Z,5.38
2024-01-24T14:33:53.652Z,5.55
2024-01-24T14:36:20.468Z,5.93
2024-01-24T14:38:47.298Z,4.82
2024-01-24T14:41:14.622Z,5.45
2024-01-24T14:43:41.340Z,5.47
2024-01-24T14:46:08.143Z,5.75
2024-01-24T14:48:35.075Z,5.97
2024-01-24T14:51:01.863Z,5.70
2024-01-24T14:53:28.631Z,6.22
2024-01-24T14:55:55.293Z,5.10
2024-01-24T14:58:21.978Z,5.55
2024-01-24T15:00:48.924Z,5.60
2024-01-24T15:03:16.286Z,5.95
2024-01-24T15:05:43.856Z,5.60
2024-01-24T15:08:10.830Z,4.97
2024-01-24T15:10:37.554Z,6.80
2024-01-24T15:13:04.640Z,5.25
2024-01-24T15:15:32.977Z,5.78
2024-01-24T15:17:59.847Z,4.10
2024-01-24T15:20:27.065Z,5.28
2024-01-24T15:22:53.912Z,4.72
2024-01-24T15:25:21.170Z,4.70
2024-01-24T15:27:47.979Z,5.22
2024-01-24T15:30:15.192Z,4.85
2024-01-24T15:32:41.915Z,5.68
2024-01-24T15:35:09.011Z,5.18
2024-01-24T15:37:35.855Z,5.30
2024-01-24T15:40:08.166Z,8.30
2024-01-24T15:42:42.950Z,5.35
2024-01-24T15:45:11.434Z,4.55
2024-01-24T15:47:38.726Z,4.45
2024-01-24T15:50:06.047Z,4.93
2024-01-24T15:52:32.907Z,4.70
2024-01-24T15:55:01.289Z,4.82
2024-01-24T15:57:28.238Z,5.20
2024-01-24T15:59:55.573Z,5.45
2024-01-24T16:02:22.565Z,5.32
2024-01-24T16:04:49.525Z,4.50
2024-01-24T16:07:17.536Z,5.40
2024-01-24T16:09:44.492Z,5.50
2024-01-24T16:12:13.787Z,5.05
2024-01-24T16:14:41.821Z,3.88
2024-01-24T16:17:11.490Z,6.32
2024-01-24T16:19:38.801Z,4.88
2024-01-24T16:22:05.934Z,4.70
2024-01-24T16:24:32.752Z,5.03
2024-01-24T16:26:59.594Z,5.13
2024-01-24T16:29:26.291Z,5.32
2024-01-24T16:31:53.094Z,6.28
2024-01-24T16:34:21.127Z,4.63
2024-01-24T16:36:47.957Z,5.40
2024-01-24T16:39:14.877Z,4.90
2024-01-24T16:41:41.627Z,5.57
2024-01-24T16:44:08.330Z,5.63
2024-01-24T16:46:35.170Z,5.15
2024-01-24T16:49:01.919Z,6.20
2024-01-24T16:51:28.858Z,6.03
2024-01-24T16:53:55.954Z,4.90
2024-01-24T16:56:23.576Z,5.65
2024-01-24T16:58:50.217Z,5.78
2024-01-24T17:01:17.050Z,5.57
2024-01-24T17:03:45.864Z,5.82
2024-01-24T17:06:12.710Z,5.40
2024-01-24T17:08:39.451Z,5.15
2024-01-24T17:11:06.168Z,6.13
2024-01-24T17:13:32.952Z,5.50
2024-01-24T17:15:59.952Z,5.15
2024-01-24T17:18:27.730Z,5.30
2024-01-24T17:20:55.157Z,4.88
2024-01-24T17:23:23.791Z,7.63
2024-01-24T17:25:50.480Z,5.32
2024-01-24T17:28:19.670Z,5.40
2024-01-24T17:30:47.311Z,5.20
2024-01-24T17:33:14.428Z,4.93
2024-01-24T17:35:42.754Z,5.43
2024-01-24T17:38:09.520Z,6.10
2024-01-24T17:40:36.349Z,5.22
2024-01-24T17:43:03.376Z,5.45
2024-01-24T17:45:30.591Z,5.32
2024-01-24T17:47:57.933Z,5.82
2024-01-24T17:50:25.012Z,5.57
2024-01-24T17:52:51.871Z,5.80
2024-01-24T17:55:18.611Z,5.63
2024-01-24T17:57:45.555Z,5.25
2024-01-24T18:00:14.313Z,5.50
2024-01-24T18:02:41.170Z,5.93
2024-01-24T18:05:08.474Z,4.75
2024-01-24T18:07:36.057Z,6.28
2024-01-24T18:10:03.530Z,7.75
2024-01-24T18:12:30.599Z,4.47
2024-01-24T18:14:57.287Z,6.28
2024-01-24T18:17:24.025Z,5.93
2024-01-24T18:19:51.274Z,6.47
2024-01-24T18:22:18.128Z,5.57
2024-01-24T18:24:47.620Z,5.85
2024-01-24T18:27:14.718Z,1.55
2024-01-24T18:29:41.608Z,1.23
2024-01-24T18:32:12.280Z,7.75
2024-01-24T18:34:39.570Z,6.35
2024-01-24T18:37:07.005Z,5.93
2024-01-24T18:39:33.960Z,5.50
2024-01-24T18:42:01.884Z,6.55
2024-01-24T18:44:28.776Z,6.53
2024-01-24T18:46:55.758Z,5.35
2024-01-24T18:49:22.573Z,7.50
2024-01-24T18:51:51.036Z,5.22
2024-01-24T18:54:18.231Z,5.57
2024-01-24T18:56:45.599Z,6.38
2024-01-24T18:59:12.561Z,6.38
2024-01-24T19:01:40.816Z,5.97
2024-01-24T19:04:07.881Z,5.40
2024-01-24T19:06:36.694Z,5.80
2024-01-24T19:09:03.907Z,6.53
2024-01-24T19:11:30.861Z,5.80
2024-01-24T19:13:57.967Z,5.90
2024-01-24T19:16:25.155Z,0.75
2024-01-24T19:18:52.072Z,1.05
2024-01-24T19:21:18.915Z,0.88
2024-01-24T19:23:45.633Z,5.65
2024-01-24T19:26:12.362Z,6.13
2024-01-24T19:28:39.452Z,5.40
2024-01-24T19:31:06.442Z,5.63
2024-01-24T19:33:33.250Z,6.70
2024-01-24T19:36:00.054Z,5.60
2024-01-24T19:38:27.412Z,6.75
2024-01-24T19:40:55.024Z,6.28
2024-01-24T19:43:21.916Z,6.85
2024-01-24T19:45:48.929Z,5.93
2024-01-24T19:48:15.823Z,5.13
2024-01-24T19:50:42.623Z,5.68
2024-01-24T19:53:12.939Z,6.60
2024-01-24T19:55:44.339Z,2.50
2024-01-24T19:58:11.105Z,2.38
2024-01-24T20:00:37.988Z,5.78
2024-01-24T20:03:05.066Z,5.57
2024-01-24T20:05:31.833Z,5.13
2024-01-24T20:07:58.630Z,5.28
2024-01-24T20:10:25.846Z,1.60
2024-01-24T20:12:52.612Z,5.72
2024-01-24T20:15:22.217Z,5.47
2024-01-24T20:17:49.299Z,1.45
2024-01-24T20:20:16.723Z,1.77
2024-01-24T20:22:43.761Z,1.55
2024-01-24T20:25:10.854Z,1.92
2024-01-24T20:27:37.731Z,1.85
2024-01-24T20:30:05.163Z,3.20
2024-01-24T20:32:31.951Z,1.35
2024-01-24T20:34:59.092Z,8.00
2024-01-24T20:37:25.870Z,6.78
2024-01-24T20:39:53.159Z,6.50
2024-01-24T20:42:28.382Z,1.23
2024-01-24T20:44:58.645Z,2.58
2024-01-24T20:47:26.407Z,1.90
2024-01-24T20:49:55.798Z,2.45
2024-01-24T20:52:22.848Z,7.00
2024-01-24T20:54:50.204Z,1.77
2024-01-24T20:57:17.330Z,1.33
2024-01-24T20:59:44.342Z,1.58
2024-01-24T21:02:12.021Z,2.15
2024-01-24T21:04:39.064Z,1.67
2024-01-24T21:07:07.596Z,2.38
2024-01-24T21:09:34.914Z,1.20
2024-01-24T21:12:01.754Z,1.70
2024-01-24T21:14:29.153Z,3.53
2024-01-24T21:16:55.935Z,1.70
2024-01-24T21:19:25.748Z,3.35
2024-01-24T21:21:53.153Z,1.75
2024-01-24T21:24:20.101Z,2.67
2024-01-24T21:26:48.184Z,3.58
2024-01-24T21:29:15.255Z,0.90
2024-01-24T21:31:48.017Z,2.97
2024-01-24T21:34:16.022Z,2.25
2024-01-24T21:36:48.099Z,1.40
2024-01-24T21:39:16.330Z,1.10
2024-01-24T21:41:44.745Z,1.00
2024-01-24T21:44:11.508Z,2.83
2024-01-24T21:46:38.224Z,1.60
2024-01-24T21:49:05.030Z,3.67
2024-01-24T21:51:32.135Z,1.27
2024-01-24T21:53:59.054Z,1.42
2024-01-24T21:56:25.953Z,2.95
2024-01-24T21:58:56.320Z,6.82
2024-01-24T22:01:25.743Z,2.50
2024-01-24T22:03:52.689Z,4.07
2024-01-24T22:06:19.476Z,2.55
2024-01-24T22:08:46.283Z,2.92
2024-01-24T22:11:15.000Z,2.13
2024-01-24T22:13:41.711Z,2.35
2024-01-24T22:16:08.508Z,6.05
2024-01-24T22:18:40.960Z,7.68
2024-01-24T22:21:14.244Z,0.85
2024-01-24T22:23:41.016Z,2.05
2024-01-24T22:26:07.716Z,1.30
2024-01-24T22:28:34.388Z,1.25
2024-01-24T22:31:01.333Z,1.45
2024-01-24T22:33:28.280Z,2.53
2024-01-24T22:35:55.176Z,1.00
2024-01-24T22:38:21.893Z,0.75
2024-01-24T22:40:48.897Z,1.75
2024-01-24T22:43:15.799Z,1.42
2024-01-24T22:45:46.395Z,2.92
2024-01-24T22:48:13.780Z,1.05
2024-01-24T22:50:41.527Z,2.53
2024-01-24T22:53:08.610Z,1.50
2024-01-24T22:55:35.467Z,0.70
2024-01-24T22:58:03.622Z,0.70
2024-01-24T23:00:30.584Z,1.90
2024-01-24T23:02:57.527Z,0.73
2024-01-24T23:05:24.318Z,1.45
2024-01-24T23:07:51.136Z,1.58
2024-01-24T23:10:18.479Z,3.65
2024-01-24T23:12:45.328Z,0.80
2024-01-24T23:15:12.105Z,1.70
2024-01-24T23:17:38.854Z,1.42
2024-01-24T23:20:08.082Z,0.82
2024-01-24T23:22:35.353Z,1.20
2024-01-24T23:25:02.236Z,1.85
2024-01-24T23:27:28.932Z,1.85
2024-01-24T23:29:55.671Z,1.95
2024-01-24T23:32:24.115Z,3.55
2024-01-24T23:34:50.945Z,0.70
2024-01-24T23:37:18.247Z,2.17
2024-01-24T23:39:45.380Z,0.80
2024-01-24T23:42:12.312Z,2.58
2024-01-24T23:44:40.115Z,2.50
2024-01-24T23:47:07.421Z,0.60
2024-01-24T23:49:34.656Z,1.17
2024-01-24T23:52:01.775Z,0.77
2024-01-24T23:54:28.720Z,1.85
2024-01-24T23:56:55.431Z,3.10
2024-01-24T23:59:22.223Z,1.23
